Westview, New York
Current Conditions -  °F | °C
As of 9:53 AM on Sunday 23 Nov 2014 (Local Time) from KBGM Reporting Station
Scattered Clouds Scattered Clouds  
Wind Chill: 43°   Ceiling: Unl
Heat Index: 48°   Visibility: 10mi
Dew Point: 30°   Wind: 10mph
Humidity: 50%   Direction: 220°SW
Pressure: 30.1"   Gusts: NA
Location:  42.1759°N, 75.9402°W
Report Text: KBGM 231453Z 22009KT 10SM FEW050 SCT065 09/M01 A3010 RMK AO2 SLP202 T00891011 51004
Loading
Personal Weather Stations






























Interactive Weather Map New forecast layout! Learn more

10-Day Weather Forecast

Advertisements
Track Severe Weather on mobile